Flight Track Log - Related Links

Times and Time Zones

All times are in EDT time to prevent confusion due to time zone crossing. See the SWA1736 flight status page for this flight to view local times or setup timezone preferences in your user account.

Time Position Orientation Groundspeed Altitude Reporting Facility
EDT Latitude Longitude Course Direction KTS MPH feet Rate Location/Type
Fri 10:48:56 PM 33.4167 -112.1167 257° West 201 231 4,600  Level Phoenix TRACON
Fri 10:50:02 PM 33.3667 -112.1833 228° Southwest 275 316 6,700 1,700 Climbing Phoenix TRACON
Fri 10:50:56 PM 33.3000 -112.1500 157° South 294 338 8,000 1,114 Climbing Phoenix TRACON
Fri 10:51:12 PM 33.2928 -112.1447 149° Southeast 289 333 8,000 1,342 Level Albuquerque Center
Fri 10:52:12 PM 33.2303 -112.0864 142° Southeast 303 349 9,700 1,967 Climbing Albuquerque Center
Fri 10:53:00 PM 33.5167 -111.1911 90° East  Level FlightAware Approximate
Fri 10:53:14 PM 33.2544 -111.9928 73° East 315 362 12,000  Level Albuquerque Center
Fri 10:54:15 PM 33.2953 -111.8911 64° Northeast 334 384 15,400 3,443 Climbing Albuquerque Center
Fri 10:55:16 PM 33.3464 -111.7664 64° Northeast 347 399 19,000 3,098 Climbing Albuquerque Center
Fri 10:56:17 PM 33.3914 -111.6564 64° Northeast 363 418 21,700 2,557 Climbing Albuquerque Center
Fri 10:57:18 PM 33.4375 -111.5425 64° Northeast 378 435 24,200 2,213 Climbing Albuquerque Center
Fri 10:58:19 PM 33.4822 -111.4211 66° East 394 453 26,200 1,951 Climbing Albuquerque Center
Fri 10:59:21 PM 33.5131 -111.2883 74° East 414 476 28,200 1,854 Climbing Albuquerque Center
Fri 11:00:22 PM 33.5456 -111.1519 74° East 423 487 30,000 1,918 Climbing Albuquerque Center
Fri 11:01:23 PM 33.5797 -111.0133 73° East 432 497 32,100 2,066 Climbing Albuquerque Center
Fri 11:02:24 PM 33.6131 -110.8781 73° East 429 494 34,200 1,721 Climbing Albuquerque Center
Fri 11:03:25 PM 33.6444 -110.7458 74° East 420 483 35,600 1,377 Climbing Albuquerque Center
Fri 11:04:26 PM 33.6817 -110.5825 75° East 422 486 37,000 1,033 Climbing Albuquerque Center
Fri 11:05:27 PM 33.7150 -110.4436 74° East 429 494 37,700 787 Climbing Albuquerque Center
Fri 11:06:28 PM 33.7433 -110.3189 75° East 438 504 38,600 634 Climbing Albuquerque Center
Fri 11:07:30 PM 33.7833 -110.1467 74° East 446 513 39,000 195 Climbing Albuquerque Center
Fri 11:08:31 PM 33.8175 -110.0056 74° East 445 512 39,000  Level Albuquerque Center
Fri 11:09:32 PM 33.8503 -109.8619 75° East 443 510 39,000  Level Albuquerque Center
Fri 11:10:33 PM 33.8822 -109.7247 74° East 439 505 39,000  Level Albuquerque Center
Fri 11:11:34 PM 33.9142 -109.5819 75° East 441 507 39,000  Level Albuquerque Center
Fri 11:12:35 PM 33.9472 -109.4403 74° East 442 509 39,000  Level Albuquerque Center
Fri 11:13:37 PM 33.9786 -109.2958 75° East 445 512 39,000  Level Albuquerque Center
Fri 11:14:38 PM 34.0117 -109.1511 75° East 448 516 39,000  Level Albuquerque Center
Fri 11:15:39 PM 34.0425 -109.0072 75° East 448 516 39,000  Level Albuquerque Center
Fri 11:16:40 PM 34.0819 -108.8361 74° East 446 513 39,000  Level Albuquerque Center
Fri 11:17:42 PM 34.1136 -108.6933 75° East 444 511 39,000  Level Albuquerque Center
Fri 11:18:43 PM 34.1447 -108.5497 75° East 446 513 39,000  Level Albuquerque Center
Fri 11:19:44 PM 34.1758 -108.4050 75° East 446 513 39,000  Level Albuquerque Center
Fri 11:20:45 PM 34.2078 -108.2628 75° East 445 512 39,000  Level Albuquerque Center
Fri 11:21:47 PM 34.2403 -108.1008 76° East 447 514 39,000  Level Albuquerque Center
Fri 11:22:48 PM 34.2703 -107.9564 76° East 446 513 39,000  Level Albuquerque Center
Fri 11:23:49 PM 34.3011 -107.8117 76° East 444 511 39,000  Level Albuquerque Center
Fri 11:24:50 PM 34.3350 -107.6642 74° East 442 509 39,000  Level Albuquerque Center
Fri 11:25:52 PM 34.3650 -107.5197 76° East 445 512 39,000  Level Albuquerque Center
Fri 11:26:53 PM 34.3953 -107.3758 76° East 444 511 39,000  Level Albuquerque Center
Fri 11:27:54 PM 34.4242 -107.2317 76° East 443 510 39,000  Level Albuquerque Center
Fri 11:28:55 PM 34.4536 -107.0872 76° East 445 512 39,000  Level Albuquerque Center
Fri 11:29:57 PM 34.4831 -106.9406 76° East 447 514 39,000  Level Albuquerque Center
Fri 11:30:58 PM 34.5181 -106.7639 76° East 452 520 39,000  Level Albuquerque Center
Fri 11:31:59 PM 34.5469 -106.6181 76° East 451 519 39,000  Level Albuquerque Center
Fri 11:33:00 PM 34.5772 -106.4706 76° East 454 522 39,000  Level Albuquerque Center
Fri 11:34:02 PM 34.6061 -106.3236 77° East 452 520 39,000  Level Albuquerque Center
Fri 11:35:03 PM 34.6394 -106.1617 76° East 449 517 39,000  Level Albuquerque Center
Fri 11:36:04 PM 34.6664 -106.0131 78° East 448 516 39,000  Level Albuquerque Center
Fri 11:37:05 PM 34.6956 -105.8658 76° East 446 513 39,000  Level Albuquerque Center
Fri 11:38:07 PM 34.7233 -105.7181 77° East 445 512 39,000  Level Albuquerque Center
Fri 11:39:08 PM 34.7525 -105.5708 76° East 444 511 39,000  Level Albuquerque Center
Fri 11:40:09 PM 34.7808 -105.4239 77° East 444 511 39,000  Level Albuquerque Center
Fri 11:41:10 PM 34.8097 -105.2761 77° East 445 512 39,000  Level Albuquerque Center
Fri 11:42:11 PM 34.8383 -105.1269 77° East 448 516 39,000  Level Albuquerque Center
Fri 11:43:12 PM 34.8658 -104.9761 77° East 451 519 39,000  Level Albuquerque Center
Fri 11:44:14 PM 34.8939 -104.8261 77° East 451 519 39,000  Level Albuquerque Center
Fri 11:45:15 PM 34.9217 -104.6753 77° East 454 522 39,000  Level Albuquerque Center
Fri 11:46:16 PM 34.9503 -104.5250 77° East 453 521 39,000  Level Albuquerque Center
Fri 11:47:17 PM 34.9778 -104.3736 77° East 456 525 39,000  Level Albuquerque Center
Fri 11:48:18 PM 35.0097 -104.1978 77° East 457 526 39,000  Level Albuquerque Center
Fri 11:49:19 PM 35.0361 -104.0472 78° East 457 526 39,000  Level Albuquerque Center
Fri 11:50:21 PM 35.0639 -103.8961 77° East 457 526 39,000  Level Albuquerque Center
Fri 11:51:22 PM 35.0911 -103.7444 78° East 457 526 39,000  Level Albuquerque Center
Fri 11:52:23 PM 35.1178 -103.5933 78° East 455 524 39,000  Level Albuquerque Center
Fri 11:53:24 PM 35.1439 -103.4417 78° East 453 521 39,000  Level Albuquerque Center
Fri 11:54:25 PM 35.1708 -103.2903 78° East 453 521 39,000  Level Albuquerque Center
Fri 11:55:27 PM 35.1956 -103.1378 79° East 454 522 39,000  Level Albuquerque Center
Fri 11:56:27 PM 35.2225 -102.9847 78° East 457 526 39,000  Level Albuquerque Center
Fri 11:57:28 PM 35.2497 -102.8156 79° East 461 531 39,000  Level Albuquerque Center
Fri 11:58:29 PM 35.2761 -102.6619 78° East 462 532 39,000  Level Albuquerque Center
Fri 11:59:31 PM 35.3014 -102.5075 79° East 463 533 39,000  Level Albuquerque Center
Sat 12:00:32 AM 35.3261 -102.3528 79° East 463 533 39,000  Level Albuquerque Center
Sat 12:01:33 AM 35.3514 -102.1989 79° East 461 531 39,000  Level Albuquerque Center
Sat 12:02:34 AM 35.3767 -102.0461 78° East 458 527 39,000  Level Albuquerque Center
Sat 12:03:35 AM 35.4056 -101.8733 78° East 459 528 39,000  Level Albuquerque Center
Sat 12:04:36 AM 35.4306 -101.7194 79° East 458 527 39,000  Level Albuquerque Center
Sat 12:05:37 AM 35.4539 -101.5833 78° East 458 527 39,000  Level Albuquerque Center
Sat 12:06:38 AM 35.4758 -101.4281 80° East 460 529 39,000  Level Albuquerque Center
Sat 12:07:39 AM 35.4986 -101.2681 80° East 463 533 39,000  Level Albuquerque Center
Sat 12:08:40 AM 35.5217 -101.1136 80° East 461 531 39,000  Level Albuquerque Center
Sat 12:09:40 AM 35.5458 -100.9592 79° East 462 532 39,000  Level Albuquerque Center
Sat 12:10:41 AM 35.5692 -100.8044 79° East 462 532 39,000  Level Albuquerque Center
Sat 12:11:42 AM 35.5922 -100.6483 80° East 464 534 39,000  Level Albuquerque Center
Sat 12:12:43 AM 35.6194 -100.4625 80° East 467 537 39,000  Level Albuquerque Center
Sat 12:13:44 AM 35.6417 -100.3044 80° East 469 540 39,000  Level Albuquerque Center
Sat 12:14:45 AM 35.6656 -100.1472 79° East 468 539 39,000  Level Albuquerque Center
Sat 12:15:46 AM 35.6875 -99.9897 80° East 468 539 39,000  Level Albuquerque Center
Sat 12:16:47 AM 35.7097 -99.8314 80° East 469 540 39,000  Level Albuquerque Center
Sat 12:17:48 AM 35.7325 -99.6739 80° East 468 539 39,000  Level Albuquerque Center
Sat 12:18:15 AM 35.7414 -99.6117 80° East 469 540 39,000  Level Kansas City Center
Sat 12:19:16 AM 35.7622 -99.4539 81° East 469 540 39,000  Level Kansas City Center
Sat 12:20:17 AM 35.7858 -99.2783 81° East 470 541 39,000  Level Kansas City Center
Sat 12:21:18 AM 35.8075 -99.1181 80° East 473 544 39,000  Level Kansas City Center
Sat 12:21:51 AM 35.8183 -99.0439 80° East 473 544 39,000  Level Albuquerque Center
Sat 12:22:52 AM 35.8394 -98.8853 81° East 475 547 39,000  Level Albuquerque Center
Sat 12:23:19 AM 35.8508 -98.7967 81° East 476 548 39,000  Level Kansas City Center
Sat 12:24:20 AM 35.8731 -98.6294 81° East 476 548 39,000  Level Kansas City Center
Sat 12:25:21 AM 35.8939 -98.4672 81° East 478 550 39,000  Level Kansas City Center
Sat 12:26:22 AM 35.9147 -98.3039 81° East 481 554 39,000  Level Kansas City Center
Sat 12:27:23 AM 35.9356 -98.1408 81° East 481 554 39,000 -639 Level Kansas City Center
Sat 12:28:24 AM 35.9550 -97.9825 81° East 483 556 37,700 -1,983 Descending Kansas City Center
Sat 12:29:24 AM 35.9756 -97.8192 81° East 482 555 35,000 -2,529 Descending Kansas City Center
Sat 12:30:25 AM 35.9956 -97.6567 81° East 479 551 32,600 -2,262 Descending Kansas City Center
Sat 12:31:26 AM 36.0153 -97.4986 81° East 469 540 30,400 -2,115 Descending Kansas City Center
Sat 12:32:27 AM 36.0333 -97.3453 82° East 457 526 28,300 -2,066 Descending Kansas City Center
Sat 12:33:28 AM 36.0514 -97.1972 81° East 448 516 26,200 -2,033 Descending Kansas City Center
Sat 12:34:28 AM 36.0678 -97.0572 82° East 432 497 24,200 -1,934 Descending Kansas City Center
Sat 12:35:29 AM 36.0833 -96.9225 82° East 415 478 22,300 -2,016 Descending Kansas City Center
Sat 12:36:30 AM 36.1008 -96.7669 82° East 397 457 20,100 -2,000 Descending Kansas City Center
Sat 12:37:02 AM 36.1092 -96.7042 81° East 373 429 19,200 -1,672 Descending Kansas City Center
Sat 12:37:31 AM 36.1147 -96.6439 83° East 376 433 18,400 -1,574 Descending Kansas City Center
Sat 12:38:03 AM 36.1228 -96.5836 81° East 356 410 17,600 -1,700 Descending Kansas City Center
Sat 12:38:31 AM 36.1256 -96.5242 87° East 362 417 16,700 -1,967 Descending Kansas City Center
Sat 12:39:04 AM 36.1189 -96.4575 97° East 343 395 15,600 -1,770 Descending Kansas City Center
Sat 12:39:32 AM 36.1164 -96.4069 93° East 346 398 14,900 -1,800 Descending Kansas City Center
Sat 12:40:04 AM 36.1094 -96.3425 98° East 336 387 13,800 -1,869 Descending Kansas City Center
Sat 12:40:33 AM 36.1033 -96.2928 99° East 340 391 13,000 -2,164 Descending Kansas City Center
Sat 12:41:05 AM 36.0983 -96.2325 96° East 321 369 11,600 -2,361 Descending Kansas City Center
Sat 12:41:34 AM 36.0928 -96.1836 98° East 329 379 10,600 -1,800 Descending Kansas City Center
Sat 12:42:05 AM 36.0875 -96.1256 96° East 313 360 9,800 -1,500 Descending Kansas City Center
Sat 12:42:34 AM 36.0819 -96.0806 99° East 313 360 9,100 -1,180 Descending Kansas City Center
Sat 12:43:06 AM 36.0792 -96.0283 94° East 282 325 8,600 -590 Descending Kansas City Center
Sat 12:43:35 AM 36.0739 -95.9878 99° East 285 328 8,500 -590 Descending Kansas City Center
Sat 12:44:07 AM 36.0703 -95.9469 96° East 222 255 8,000 -1,180 Descending Kansas City Center
Sat 12:44:36 AM 36.0675 -95.9106 95° East 240 276 7,300 -1,900 Descending Kansas City Center
Sat 12:45:07 AM 36.0653 -95.8647 93° East 215 247 6,100 -1,967 Descending Kansas City Center
Sat 12:45:37 AM 36.0628 -95.8372 96° East 223 257 5,300 -2,164 Descending Kansas City Center
Sat 12:46:08 AM 36.0744 -95.8017 68° East 191 220 3,900 -2,300 Descending Kansas City Center
Sat 12:46:37 AM 36.0917 -95.7889 31° Northeast 195 224 3,000 -1,400 Descending Kansas City Center
Sat 12:47:08 AM 36.1217 -95.7875 North 164 189 2,500 -590 Descending Kansas City Center
Sat 12:47:38 AM 36.1375 -95.7875 360° North 176 203 2,400 -295 Descending Kansas City Center
Sat 12:48:09 AM 36.1636 -95.7897 356° North 151 174 2,200 -393 Descending Kansas City Center
Sat 12:48:39 AM 36.1789 -95.7931 350° North 162 186 2,000 -689 Descending Kansas City Center
Sat 12:49:10 AM 36.1933 -95.8169 307° West 132 152 1,500 -900 Descending Kansas City Center
Sat 12:49:39 AM 36.1958 -95.8350 280° West 145 167 1,100 -700 Descending Kansas City Center
Sat 12:50:10 AM 36.1956 -95.8658 269° West 141 162 800 -393 Descending Kansas City Center
Sat 12:50:40 AM 36.1936 -95.8856 263° West 142 163 700 -200 Descending Kansas City Center

Login

Don't have an account? Register now (free) for customized features, flight alerts, and more!